sensor_id;sensor_type;location;lat;lon;timestamp;pressure;altitude;pressure_sealevel;temperature;humidity
37312;BME280;23197;53.912;9.138;2022-10-31T00:00:45;101804.22;;;17.92;61.21
37312;BME280;23197;53.912;9.138;2022-10-31T00:03:10;101802.19;;;17.95;61.68
37312;BME280;23197;53.912;9.138;2022-10-31T00:05:40;101809.03;;;17.98;61.83
37312;BME280;23197;53.912;9.138;2022-10-31T00:08:06;101806.88;;;18.03;61.76
37312;BME280;23197;53.912;9.138;2022-10-31T00:10:31;101807.69;;;18.03;62.30
37312;BME280;23197;53.912;9.138;2022-10-31T00:12:56;101818.06;;;18.06;62.40
37312;BME280;23197;53.912;9.138;2022-10-31T00:15:22;101812.63;;;18.08;62.28
37312;BME280;23197;53.912;9.138;2022-10-31T00:17:54;101816.69;;;18.12;62.09
37312;BME280;23197;53.912;9.138;2022-10-31T00:20:19;101807.81;;;18.13;62.01
37312;BME280;23197;53.912;9.138;2022-10-31T00:22:45;101811.88;;;18.17;61.70
37312;BME280;23197;53.912;9.138;2022-10-31T00:25:10;101814.31;;;18.20;61.33
37312;BME280;23197;53.912;9.138;2022-10-31T00:27:35;101810.69;;;18.21;61.17
37312;BME280;23197;53.912;9.138;2022-10-31T00:30:01;101800.09;;;18.21;60.90
37312;BME280;23197;53.912;9.138;2022-10-31T00:32:28;101803.72;;;18.20;60.61
37312;BME280;23197;53.912;9.138;2022-10-31T00:34:55;101804.44;;;18.22;60.40
37312;BME280;23197;53.912;9.138;2022-10-31T00:37:21;101806.47;;;18.18;60.33
37312;BME280;23197;53.912;9.138;2022-10-31T00:39:46;101803.94;;;18.17;59.98
37312;BME280;23197;53.912;9.138;2022-10-31T00:42:14;101819.81;;;18.17;60.13
37312;BME280;23197;53.912;9.138;2022-10-31T00:44:42;101829.81;;;18.13;59.95
37312;BME280;23197;53.912;9.138;2022-10-31T00:47:07;101833.66;;;18.09;59.86
37312;BME280;23197;53.912;9.138;2022-10-31T00:49:32;101834.75;;;18.07;60.10
37312;BME280;23197;53.912;9.138;2022-10-31T00:51:58;101835.97;;;18.03;60.07
37312;BME280;23197;53.912;9.138;2022-10-31T00:54:23;101845.84;;;18.01;60.20
37312;BME280;23197;53.912;9.138;2022-10-31T00:56:49;101841.75;;;17.97;60.18
37312;BME280;23197;53.912;9.138;2022-10-31T00:59:14;101837.63;;;17.93;60.14
37312;BME280;23197;53.912;9.138;2022-10-31T01:01:40;101841.25;;;17.92;60.47
37312;BME280;23197;53.912;9.138;2022-10-31T01:04:06;101849.44;;;17.88;60.43
37312;BME280;23197;53.912;9.138;2022-10-31T01:06:31;101859.28;;;17.86;60.55
37312;BME280;23197;53.912;9.138;2022-10-31T01:08:57;101852.44;;;17.84;60.53
37312;BME280;23197;53.912;9.138;2022-10-31T01:11:23;101856.16;;;17.81;60.41
37312;BME280;23197;53.912;9.138;2022-10-31T01:13:52;101860.00;;;17.77;60.76
37312;BME280;23197;53.912;9.138;2022-10-31T01:16:20;101863.63;;;17.76;60.63
37312;BME280;23197;53.912;9.138;2022-10-31T01:18:45;101870.00;;;17.74;60.68
37312;BME280;23197;53.912;9.138;2022-10-31T01:21:15;101864.06;;;17.70;60.66
37312;BME280;23197;53.912;9.138;2022-10-31T01:23:41;101867.66;;;17.69;60.54
37312;BME280;23197;53.912;9.138;2022-10-31T01:26:19;101867.88;;;17.66;60.47
37312;BME280;23197;53.912;9.138;2022-10-31T01:28:53;101864.53;;;17.64;60.43
37312;BME280;23197;53.912;9.138;2022-10-31T01:31:21;101863.81;;;17.62;60.51
37312;BME280;23197;53.912;9.138;2022-10-31T01:33:48;101865.72;;;17.60;60.29
37312;BME280;23197;53.912;9.138;2022-10-31T01:36:17;101857.91;;;17.58;60.29
37312;BME280;23197;53.912;9.138;2022-10-31T01:38:42;101867.66;;;17.58;59.98
37312;BME280;23197;53.912;9.138;2022-10-31T01:41:10;101868.59;;;17.57;60.00
37312;BME280;23197;53.912;9.138;2022-10-31T01:43:47;101855.75;;;17.52;59.90
37312;BME280;23197;53.912;9.138;2022-10-31T01:46:14;101868.13;;;17.52;59.71
37312;BME280;23197;53.912;9.138;2022-10-31T01:48:41;101865.72;;;17.49;59.66
37312;BME280;23197;53.912;9.138;2022-10-31T01:51:07;101876.50;;;17.46;59.79
37312;BME280;23197;53.912;9.138;2022-10-31T01:53:34;101874.97;;;17.43;60.17
37312;BME280;23197;53.912;9.138;2022-10-31T01:56:01;101870.72;;;17.41;60.19
37312;BME280;23197;53.912;9.138;2022-10-31T01:58:28;101874.72;;;17.35;60.53
37312;BME280;23197;53.912;9.138;2022-10-31T02:00:58;101872.41;;;17.30;60.82
37312;BME280;23197;53.912;9.138;2022-10-31T02:03:25;101878.78;;;17.28;60.79
37312;BME280;23197;53.912;9.138;2022-10-31T02:05:54;101883.44;;;17.24;61.05
37312;BME280;23197;53.912;9.138;2022-10-31T02:08:31;101896.00;;;17.21;61.26
37312;BME280;23197;53.912;9.138;2022-10-31T02:10:59;101900.47;;;17.20;61.59
37312;BME280;23197;53.912;9.138;2022-10-31T02:13:26;101895.28;;;17.19;62.06
37312;BME280;23197;53.912;9.138;2022-10-31T02:15:55;101891.81;;;17.18;62.48
37312;BME280;23197;53.912;9.138;2022-10-31T02:18:22;101896.25;;;17.18;62.50
37312;BME280;23197;53.912;9.138;2022-10-31T02:21:02;101900.81;;;17.16;62.92
37312;BME280;23197;53.912;9.138;2022-10-31T02:33:57;101898.28;;;17.14;64.44
37312;BME280;23197;53.912;9.138;2022-10-31T02:36:32;101898.28;;;17.14;64.46
37312;BME280;23197;53.912;9.138;2022-10-31T02:41:56;101906.09;;;17.16;64.67
37312;BME280;23197;53.912;9.138;2022-10-31T02:44:49;101907.16;;;17.13;65.31
37312;BME280;23197;53.912;9.138;2022-10-31T02:47:26;101906.09;;;17.16;65.16
37312;BME280;23197;53.912;9.138;2022-10-31T02:52:33;101911.03;;;17.20;64.64
37312;BME280;23197;53.912;9.138;2022-10-31T02:58:14;101922.69;;;17.18;65.03
37312;BME280;23197;53.912;9.138;2022-10-31T03:04:02;101925.06;;;17.21;66.05
37312;BME280;23197;53.912;9.138;2022-10-31T03:06:41;101925.47;;;17.27;66.60
37312;BME280;23197;53.912;9.138;2022-10-31T03:09:11;101929.22;;;17.36;66.39
37312;BME280;23197;53.912;9.138;2022-10-31T03:11:56;101934.41;;;17.38;66.44
37312;BME280;23197;53.912;9.138;2022-10-31T03:14:33;101935.88;;;17.42;66.47
37312;BME280;23197;53.912;9.138;2022-10-31T03:17:05;101946.91;;;17.47;66.55
37312;BME280;23197;53.912;9.138;2022-10-31T03:19:40;101951.03;;;17.51;66.52
37312;BME280;23197;53.912;9.138;2022-10-31T03:22:16;101942.84;;;17.54;66.12
37312;BME280;23197;53.912;9.138;2022-10-31T03:24:43;101949.59;;;17.58;66.09
37312;BME280;23197;53.912;9.138;2022-10-31T03:27:12;101949.47;;;17.59;65.83
37312;BME280;23197;53.912;9.138;2022-10-31T03:29:42;101949.25;;;17.62;65.81
37312;BME280;23197;53.912;9.138;2022-10-31T03:32:13;101954.41;;;17.64;65.61
37312;BME280;23197;53.912;9.138;2022-10-31T03:34:41;101954.28;;;17.66;65.62
37312;BME280;23197;53.912;9.138;2022-10-31T03:37:10;101958.53;;;17.68;65.53
37312;BME280;23197;53.912;9.138;2022-10-31T03:39:38;101969.81;;;17.70;65.47
37312;BME280;23197;53.912;9.138;2022-10-31T03:42:24;101966.25;;;17.71;65.52
37312;BME280;23197;53.912;9.138;2022-10-31T03:44:53;101971.19;;;17.76;65.22
37312;BME280;23197;53.912;9.138;2022-10-31T03:47:21;101983.31;;;17.78;65.40
37312;BME280;23197;53.912;9.138;2022-10-31T03:49:48;101974.44;;;17.79;65.19
37312;BME280;23197;53.912;9.138;2022-10-31T03:52:27;101974.22;;;17.82;65.17
37312;BME280;23197;53.912;9.138;2022-10-31T03:55:02;101973.97;;;17.85;65.36
37312;BME280;23197;53.912;9.138;2022-10-31T03:57:39;101969.41;;;17.87;64.94
37312;BME280;23197;53.912;9.138;2022-10-31T04:00:09;101974.25;;;17.94;64.84
37312;BME280;23197;53.912;9.138;2022-10-31T04:02:50;101969.66;;;17.96;64.69
37312;BME280;23197;53.912;9.138;2022-10-31T04:05:17;101972.19;;;17.97;64.46
37312;BME280;23197;53.912;9.138;2022-10-31T04:07:47;101976.63;;;17.97;64.29
37312;BME280;23197;53.912;9.138;2022-10-31T04:10:14;101973.28;;;17.95;64.25
37312;BME280;23197;53.912;9.138;2022-10-31T04:12:45;101969.88;;;17.93;64.05
37312;BME280;23197;53.912;9.138;2022-10-31T04:15:26;101975.19;;;17.93;64.08
37312;BME280;23197;53.912;9.138;2022-10-31T04:17:55;101988.53;;;17.91;63.93
37312;BME280;23197;53.912;9.138;2022-10-31T04:20:37;101984.31;;;17.88;64.07
37312;BME280;23197;53.912;9.138;2022-10-31T04:23:05;101980.72;;;17.89;63.94
37312;BME280;23197;53.912;9.138;2022-10-31T04:25:33;101977.34;;;17.87;63.73
37312;BME280;23197;53.912;9.138;2022-10-31T04:27:59;101977.56;;;17.84;63.78
37312;BME280;23197;53.912;9.138;2022-10-31T04:30:24;101976.00;;;17.82;63.32
37312;BME280;23197;53.912;9.138;2022-10-31T04:32:50;101986.72;;;17.80;63.30
37312;BME280;23197;53.912;9.138;2022-10-31T04:35:16;101983.31;;;17.78;62.94
37312;BME280;23197;53.912;9.138;2022-10-31T04:37:41;101978.50;;;17.72;63.22
37312;BME280;23197;53.912;9.138;2022-10-31T04:40:07;101985.69;;;17.70;62.97
37312;BME280;23197;53.912;9.138;2022-10-31T04:42:56;101986.16;;;17.64;63.13
37312;BME280;23197;53.912;9.138;2022-10-31T04:45:21;101985.75;;;17.57;63.17
37312;BME280;23197;53.912;9.138;2022-10-31T04:47:50;101991.28;;;17.54;63.32
37312;BME280;23197;53.912;9.138;2022-10-31T04:50:16;101987.19;;;17.50;63.22
37312;BME280;23197;53.912;9.138;2022-10-31T04:52:43;101993.66;;;17.46;63.10
37312;BME280;23197;53.912;9.138;2022-10-31T04:55:12;101988.81;;;17.40;63.18
37312;BME280;23197;53.912;9.138;2022-10-31T04:58:04;101991.81;;;17.35;62.92
37312;BME280;23197;53.912;9.138;2022-10-31T05:00:29;101990.34;;;17.31;63.02
37312;BME280;23197;53.912;9.138;2022-10-31T05:02:57;101989.84;;;17.26;63.12
37312;BME280;23197;53.912;9.138;2022-10-31T05:05:29;101993.69;;;17.22;63.11
37312;BME280;23197;53.912;9.138;2022-10-31T05:07:55;101991.25;;;17.19;62.58
37312;BME280;23197;53.912;9.138;2022-10-31T05:10:25;101986.19;;;17.16;62.81
37312;BME280;23197;53.912;9.138;2022-10-31T05:12:56;101984.00;;;17.10;62.86
37312;BME280;23197;53.912;9.138;2022-10-31T05:15:42;101991.94;;;17.10;62.57
37312;BME280;23197;53.912;9.138;2022-10-31T05:18:26;101994.16;;;17.03;62.65
37312;BME280;23197;53.912;9.138;2022-10-31T05:21:10;101990.06;;;16.99;62.84
37312;BME280;23197;53.912;9.138;2022-10-31T05:23:41;101996.41;;;16.97;62.87
37312;BME280;23197;53.912;9.138;2022-10-31T05:26:06;101993.03;;;16.95;63.05
37312;BME280;23197;53.912;9.138;2022-10-31T05:28:32;101993.03;;;16.95;63.10
37312;BME280;23197;53.912;9.138;2022-10-31T05:30:58;101994.94;;;16.93;62.90
37312;BME280;23197;53.912;9.138;2022-10-31T05:33:24;101997.56;;;16.93;62.80
37312;BME280;23197;53.912;9.138;2022-10-31T05:36:09;101987.13;;;16.91;63.18
37312;BME280;23197;53.912;9.138;2022-10-31T05:38:49;101992.41;;;16.91;63.10
37312;BME280;23197;53.912;9.138;2022-10-31T05:41:26;101985.44;;;16.90;62.92
37312;BME280;23197;53.912;9.138;2022-10-31T05:44:00;101988.19;;;16.89;62.89
37312;BME280;23197;53.912;9.138;2022-10-31T05:46:28;101989.13;;;16.88;62.73
37312;BME280;23197;53.912;9.138;2022-10-31T05:49:29;101990.31;;;16.84;62.85
37312;BME280;23197;53.912;9.138;2022-10-31T05:52:20;101990.53;;;16.80;62.62
37312;BME280;23197;53.912;9.138;2022-10-31T05:54:53;101993.41;;;16.77;62.51
37312;BME280;23197;53.912;9.138;2022-10-31T05:57:19;101990.13;;;16.74;62.11
37312;BME280;23197;53.912;9.138;2022-10-31T05:59:44;101997.31;;;16.72;62.01
37312;BME280;23197;53.912;9.138;2022-10-31T06:02:10;101993.97;;;16.70;62.29
37312;BME280;23197;53.912;9.138;2022-10-31T06:05:13;101999.63;;;16.64;62.13
37312;BME280;23197;53.912;9.138;2022-10-31T06:07:40;101999.97;;;16.59;62.00
37312;BME280;23197;53.912;9.138;2022-10-31T06:10:07;102000.16;;;16.56;61.87
37312;BME280;23197;53.912;9.138;2022-10-31T06:12:35;102002.19;;;16.52;61.89
37312;BME280;23197;53.912;9.138;2022-10-31T06:15:14;102005.03;;;16.49;61.93
37312;BME280;23197;53.912;9.138;2022-10-31T06:17:42;102014.72;;;16.49;61.92
37312;BME280;23197;53.912;9.138;2022-10-31T06:20:21;102017.59;;;16.46;62.20
37312;BME280;23197;53.912;9.138;2022-10-31T06:22:55;102008.97;;;16.44;62.72
37312;BME280;23197;53.912;9.138;2022-10-31T06:25:21;102008.97;;;16.44;62.99
37312;BME280;23197;53.912;9.138;2022-10-31T06:27:48;102008.13;;;16.43;63.35
37312;BME280;23197;53.912;9.138;2022-10-31T06:30:14;102016.75;;;16.45;63.59
37312;BME280;23197;53.912;9.138;2022-10-31T06:32:40;102013.16;;;16.46;63.84
37312;BME280;23197;53.912;9.138;2022-10-31T06:35:07;102014.84;;;16.47;63.70
37312;BME280;23197;53.912;9.138;2022-10-31T06:37:34;102022.66;;;16.49;63.91
37312;BME280;23197;53.912;9.138;2022-10-31T06:40:10;102023.59;;;16.48;64.17
37312;BME280;23197;53.912;9.138;2022-10-31T06:42:58;102024.56;;;16.47;64.31
37312;BME280;23197;53.912;9.138;2022-10-31T06:45:24;102035.13;;;16.47;64.25
37312;BME280;23197;53.912;9.138;2022-10-31T06:48:12;102038.59;;;16.47;64.57
37312;BME280;23197;53.912;9.138;2022-10-31T06:50:45;102045.47;;;16.50;64.39
37312;BME280;23197;53.912;9.138;2022-10-31T06:53:12;102045.25;;;16.53;64.60
37312;BME280;23197;53.912;9.138;2022-10-31T06:55:40;102048.63;;;16.55;64.39
37312;BME280;23197;53.912;9.138;2022-10-31T06:58:09;102057.28;;;16.57;64.54
37312;BME280;23197;53.912;9.138;2022-10-31T07:00:35;102052.75;;;16.59;64.32
37312;BME280;23197;53.912;9.138;2022-10-31T07:03:12;102056.22;;;16.60;64.36
37312;BME280;23197;53.912;9.138;2022-10-31T07:05:39;102063.84;;;16.64;64.31
37312;BME280;23197;53.912;9.138;2022-10-31T07:08:06;102068.16;;;16.65;64.14
37312;BME280;23197;53.912;9.138;2022-10-31T07:10:34;102072.38;;;16.68;64.05
37312;BME280;23197;53.912;9.138;2022-10-31T07:13:04;102071.41;;;16.69;64.11
37312;BME280;23197;53.912;9.138;2022-10-31T07:15:34;102076.69;;;16.69;64.04
37312;BME280;23197;53.912;9.138;2022-10-31T07:18:05;102079.44;;;16.67;63.78
37312;BME280;23197;53.912;9.138;2022-10-31T07:20:32;102083.72;;;16.70;63.86
37312;BME280;23197;53.912;9.138;2022-10-31T07:22:58;102079.28;;;16.70;63.81
37312;BME280;23197;53.912;9.138;2022-10-31T07:25:24;102084.59;;;16.69;63.64
37312;BME280;23197;53.912;9.138;2022-10-31T07:28:04;102082.31;;;16.64;63.79
37312;BME280;23197;53.912;9.138;2022-10-31T07:30:31;102094.75;;;16.62;63.72
37312;BME280;23197;53.912;9.138;2022-10-31T07:32:57;102086.09;;;16.60;63.62
37312;BME280;23197;53.912;9.138;2022-10-31T07:35:28;102093.28;;;16.58;63.86
37312;BME280;23197;53.912;9.138;2022-10-31T07:38:06;102099.72;;;16.54;64.18
37312;BME280;23197;53.912;9.138;2022-10-31T07:40:32;102095.16;;;16.56;64.29
37312;BME280;23197;53.912;9.138;2022-10-31T07:42:57;102090.84;;;16.55;64.35
37312;BME280;23197;53.912;9.138;2022-10-31T07:45:50;102096.88;;;16.57;64.40
37312;BME280;23197;53.912;9.138;2022-10-31T07:48:39;102093.19;;;16.60;64.64
37312;BME280;23197;53.912;9.138;2022-10-31T07:51:37;102086.63;;;16.65;64.73
37312;BME280;23197;53.912;9.138;2022-10-31T07:54:26;102091.53;;;16.71;64.86
37312;BME280;23197;53.912;9.138;2022-10-31T07:56:52;102091.09;;;16.77;64.84
37312;BME280;23197;53.912;9.138;2022-10-31T07:59:18;102089.72;;;16.85;64.88
37312;BME280;23197;53.912;9.138;2022-10-31T08:01:43;102091.91;;;16.91;65.01
37312;BME280;23197;53.912;9.138;2022-10-31T08:04:32;102087.03;;;16.97;64.94
37312;BME280;23197;53.912;9.138;2022-10-31T08:07:16;102092.00;;;17.02;65.01
37312;BME280;23197;53.912;9.138;2022-10-31T08:09:48;102098.53;;;17.09;64.85
37312;BME280;23197;53.912;9.138;2022-10-31T08:12:20;102090.19;;;17.15;64.89
37312;BME280;23197;53.912;9.138;2022-10-31T08:14:45;102091.44;;;17.22;65.02
37312;BME280;23197;53.912;9.138;2022-10-31T08:17:13;102100.81;;;17.26;64.78
37312;BME280;23197;53.912;9.138;2022-10-31T08:19:46;102105.88;;;17.29;64.67
37312;BME280;23197;53.912;9.138;2022-10-31T08:22:14;102104.59;;;17.35;64.56
37312;BME280;23197;53.912;9.138;2022-10-31T08:24:40;102099.72;;;17.42;64.67
37312;BME280;23197;53.912;9.138;2022-10-31T08:27:05;102098.66;;;17.44;64.44
37312;BME280;23197;53.912;9.138;2022-10-31T08:29:31;102100.00;;;17.50;64.48
37312;BME280;23197;53.912;9.138;2022-10-31T08:31:57;102091.81;;;17.53;64.56
37312;BME280;23197;53.912;9.138;2022-10-31T08:34:58;102100.50;;;17.55;64.52
37312;BME280;23197;53.912;9.138;2022-10-31T08:37:42;102095.09;;;17.56;64.39
37312;BME280;23197;53.912;9.138;2022-10-31T08:40:08;102094.03;;;17.59;64.52
37312;BME280;23197;53.912;9.138;2022-10-31T08:42:34;102089.25;;;17.64;64.42
37312;BME280;23197;53.912;9.138;2022-10-31T08:45:00;102094.22;;;17.69;64.52
37312;BME280;23197;53.912;9.138;2022-10-31T08:47:26;102099.16;;;17.73;64.29
37312;BME280;23197;53.912;9.138;2022-10-31T08:49:53;102090.06;;;17.77;64.44
37312;BME280;23197;53.912;9.138;2022-10-31T08:52:22;102089.94;;;17.79;64.39
37312;BME280;23197;53.912;9.138;2022-10-31T08:54:48;102095.03;;;17.82;64.33
37312;BME280;23197;53.912;9.138;2022-10-31T08:57:36;102095.88;;;17.82;64.29
37312;BME280;23197;53.912;9.138;2022-10-31T09:00:02;102096.38;;;17.87;64.54
37312;BME280;23197;53.912;9.138;2022-10-31T09:02:56;102105.53;;;17.95;64.65
37312;BME280;23197;53.912;9.138;2022-10-31T09:05:22;102100.50;;;18.03;64.76
37312;BME280;23197;53.912;9.138;2022-10-31T09:07:48;102101.13;;;18.06;64.68
37312;BME280;23197;53.912;9.138;2022-10-31T09:10:13;102099.19;;;18.08;64.43
37312;BME280;23197;53.912;9.138;2022-10-31T09:12:40;102098.94;;;18.11;64.19
37312;BME280;23197;53.912;9.138;2022-10-31T09:15:26;102101.59;;;18.11;63.59
37312;BME280;23197;53.912;9.138;2022-10-31T09:18:11;102105.84;;;18.14;63.59
37312;BME280;23197;53.912;9.138;2022-10-31T09:20:58;102109.19;;;18.16;63.58
37312;BME280;23197;53.912;9.138;2022-10-31T09:23:26;102113.41;;;18.18;63.59
37312;BME280;23197;53.912;9.138;2022-10-31T09:25:53;102119.53;;;18.19;63.52
37312;BME280;23197;53.912;9.138;2022-10-31T09:28:45;102113.41;;;18.18;63.44
37312;BME280;23197;53.912;9.138;2022-10-31T09:31:13;102108.97;;;18.19;63.36
37312;BME280;23197;53.912;9.138;2022-10-31T09:34:00;102115.13;;;18.20;63.42
37312;BME280;23197;53.912;9.138;2022-10-31T09:36:34;102112.34;;;18.21;63.40
37312;BME280;23197;53.912;9.138;2022-10-31T09:39:02;102115.72;;;18.23;63.53
37312;BME280;23197;53.912;9.138;2022-10-31T09:41:49;102118.97;;;18.27;63.52
37312;BME280;23197;53.912;9.138;2022-10-31T09:44:26;102114.16;;;18.32;63.39
37312;BME280;23197;53.912;9.138;2022-10-31T09:47:13;102115.63;;;18.36;63.40
37312;BME280;23197;53.912;9.138;2022-10-31T09:52:36;102109.16;;;18.40;63.28
37312;BME280;23197;53.912;9.138;2022-10-31T09:55:15;102110.72;;;18.42;63.21
37312;BME280;23197;53.912;9.138;2022-10-31T09:57:42;102117.22;;;18.50;63.38
37312;BME280;23197;53.912;9.138;2022-10-31T10:00:18;102120.56;;;18.52;63.35
37312;BME280;23197;53.912;9.138;2022-10-31T10:06:17;102118.41;;;18.57;63.34
37312;BME280;23197;53.912;9.138;2022-10-31T10:09:08;102112.66;;;18.63;63.40
37312;BME280;23197;53.912;9.138;2022-10-31T10:12:16;102115.81;;;18.68;63.39
37312;BME280;23197;53.912;9.138;2022-10-31T10:15:16;102121.75;;;18.72;63.29
37312;BME280;23197;53.912;9.138;2022-10-31T10:21:04;102121.97;;;18.80;63.15
37312;BME280;23197;53.912;9.138;2022-10-31T10:26:19;102111.00;;;18.84;62.95
37312;BME280;23197;53.912;9.138;2022-10-31T10:29:34;102106.19;;;18.89;63.12
37312;BME280;23197;53.912;9.138;2022-10-31T10:31:37;102104.03;;;18.94;63.13
37312;BME280;23197;53.912;9.138;2022-10-31T10:39:19;102109.81;;;19.00;62.82
37312;BME280;23197;53.912;9.138;2022-10-31T10:41:48;102112.94;;;19.05;62.82
37312;BME280;23197;53.912;9.138;2022-10-31T10:44:34;102110.75;;;19.10;62.93
37312;BME280;23197;53.912;9.138;2022-10-31T10:47:19;102112.22;;;19.14;62.91
37312;BME280;23197;53.912;9.138;2022-10-31T10:50:31;102103.28;;;19.15;62.99
37312;BME280;23197;53.912;9.138;2022-10-31T10:58:10;102102.13;;;19.62;63.58
37312;BME280;23197;53.912;9.138;2022-10-31T11:00:41;102094.13;;;19.73;63.57
37312;BME280;23197;53.912;9.138;2022-10-31T11:03:09;102098.41;;;19.86;63.43
37312;BME280;23197;53.912;9.138;2022-10-31T11:05:39;102098.19;;;19.89;62.84
37312;BME280;23197;53.912;9.138;2022-10-31T11:08:06;102091.75;;;19.91;62.58
37312;BME280;23197;53.912;9.138;2022-10-31T11:10:32;102094.16;;;19.94;61.99
37312;BME280;23197;53.912;9.138;2022-10-31T11:13:06;102095.41;;;19.90;61.62
37312;BME280;23197;53.912;9.138;2022-10-31T11:15:36;102090.59;;;19.84;62.05
37312;BME280;23197;53.912;9.138;2022-10-31T11:18:02;102082.59;;;19.95;61.87
37312;BME280;23197;53.912;9.138;2022-10-31T11:20:31;102089.31;;;19.99;61.59
37312;BME280;23197;53.912;9.138;2022-10-31T11:23:18;102094.88;;;19.96;61.53
37312;BME280;23197;53.912;9.138;2022-10-31T11:28:21;102087.34;;;20.01;61.45
37312;BME280;23197;53.912;9.138;2022-10-31T11:30:49;102096.06;;;20.03;61.47
37312;BME280;23197;53.912;9.138;2022-10-31T11:33:24;102096.06;;;20.03;61.26
37312;BME280;23197;53.912;9.138;2022-10-31T11:35:53;102086.13;;;20.05;61.19
37312;BME280;23197;53.912;9.138;2022-10-31T11:38:21;102081.53;;;20.08;61.08
37312;BME280;23197;53.912;9.138;2022-10-31T11:40:56;102076.22;;;20.08;61.03
37312;BME280;23197;53.912;9.138;2022-10-31T11:43:22;102068.72;;;20.13;61.35
37312;BME280;23197;53.912;9.138;2022-10-31T11:45:48;102075.72;;;20.14;60.94
37312;BME280;23197;53.912;9.138;2022-10-31T11:48:20;102077.66;;;20.12;61.00
37312;BME280;23197;53.912;9.138;2022-10-31T11:50:54;102069.00;;;20.10;60.92
37312;BME280;23197;53.912;9.138;2022-10-31T11:53:29;102072.34;;;20.12;61.20
37312;BME280;23197;53.912;9.138;2022-10-31T11:58:30;102073.91;;;20.14;61.17
37312;BME280;23197;53.912;9.138;2022-10-31T12:00:57;102070.53;;;20.12;60.99
37312;BME280;23197;53.912;9.138;2022-10-31T12:06:03;102060.31;;;20.08;60.98
37312;BME280;23197;53.912;9.138;2022-10-31T12:08:32;102057.66;;;20.08;60.84
37312;BME280;23197;53.912;9.138;2022-10-31T12:11:11;102062.25;;;20.05;60.74
37312;BME280;23197;53.912;9.138;2022-10-31T12:14:15;102051.19;;;20.00;60.60
37312;BME280;23197;53.912;9.138;2022-10-31T12:24:39;102039.19;;;20.27;61.83
37312;BME280;23197;53.912;9.138;2022-10-31T12:37:47;102021.59;;;20.87;61.15
37312;BME280;23197;53.912;9.138;2022-10-31T12:40:36;102026.91;;;20.87;60.63
37312;BME280;23197;53.912;9.138;2022-10-31T12:45:58;102017.22;;;20.86;60.20
37312;BME280;23197;53.912;9.138;2022-10-31T12:53:42;102015.38;;;20.77;59.49
37312;BME280;23197;53.912;9.138;2022-10-31T12:56:46;102022.66;;;20.75;59.46
37312;BME280;23197;53.912;9.138;2022-10-31T13:01:52;102021.78;;;20.65;59.12
37312;BME280;23197;53.912;9.138;2022-10-31T13:07:41;102011.91;;;20.46;59.09
37312;BME280;23197;53.912;9.138;2022-10-31T13:10:32;102009.66;;;20.41;58.93
37312;BME280;23197;53.912;9.138;2022-10-31T13:13:27;102005.97;;;20.32;59.26
37312;BME280;23197;53.912;9.138;2022-10-31T13:15:57;102002.47;;;20.32;59.19
37312;BME280;23197;53.912;9.138;2022-10-31T13:18:30;102004.88;;;20.35;59.41
37312;BME280;23197;53.912;9.138;2022-10-31T13:20:58;102000.41;;;20.36;59.44
37312;BME280;23197;53.912;9.138;2022-10-31T13:23:33;101990.88;;;20.33;59.55
37312;BME280;23197;53.912;9.138;2022-10-31T13:26:03;101982.19;;;20.31;59.51
37312;BME280;23197;53.912;9.138;2022-10-31T13:31:20;101975.81;;;20.43;59.88
37312;BME280;23197;53.912;9.138;2022-10-31T13:33:48;101977.06;;;20.70;60.92
37312;BME280;23197;53.912;9.138;2022-10-31T13:36:38;101970.84;;;21.00;60.73
37312;BME280;23197;53.912;9.138;2022-10-31T13:39:23;101961.66;;;21.33;60.33
37312;BME280;23197;53.912;9.138;2022-10-31T13:42:04;101963.16;;;21.55;59.71
37312;BME280;23197;53.912;9.138;2022-10-31T13:44:35;101953.19;;;21.66;59.40
37312;BME280;23197;53.912;9.138;2022-10-31T13:49:48;101954.72;;;21.69;57.73
37312;BME280;23197;53.912;9.138;2022-10-31T13:52:24;101943.41;;;21.57;56.74
37312;BME280;23197;53.912;9.138;2022-10-31T13:54:51;101933.47;;;21.50;56.41
37312;BME280;23197;53.912;9.138;2022-10-31T13:57:41;101916.13;;;21.36;56.24
37312;BME280;23197;53.912;9.138;2022-10-31T14:02:48;101905.50;;;21.07;56.17
37312;BME280;23197;53.912;9.138;2022-10-31T14:05:34;101895.41;;;20.91;55.85
37312;BME280;23197;53.912;9.138;2022-10-31T14:08:03;101898.06;;;20.81;55.99
37312;BME280;23197;53.912;9.138;2022-10-31T14:13:15;101874.94;;;20.53;56.01
37312;BME280;23197;53.912;9.138;2022-10-31T14:15:54;101870.59;;;20.42;55.78
37312;BME280;23197;53.912;9.138;2022-10-31T14:18:37;101873.63;;;20.28;56.06
37312;BME280;23197;53.912;9.138;2022-10-31T14:21:46;101884.88;;;20.11;56.28
37312;BME280;23197;53.912;9.138;2022-10-31T14:27:02;101901.69;;;19.90;56.74
37312;BME280;23197;53.912;9.138;2022-10-31T14:29:32;101902.94;;;19.86;56.87
37312;BME280;23197;53.912;9.138;2022-10-31T14:34:51;101887.50;;;19.70;56.97
37312;BME280;23197;53.912;9.138;2022-10-31T14:40:47;101873.97;;;19.52;57.39
37312;BME280;23197;53.912;9.138;2022-10-31T14:49:38;101867.84;;;19.31;57.62
37312;BME280;23197;53.912;9.138;2022-10-31T14:52:07;101872.69;;;19.26;57.71
37312;BME280;23197;53.912;9.138;2022-10-31T14:54:38;101863.69;;;19.17;57.92
37312;BME280;23197;53.912;9.138;2022-10-31T14:57:07;101855.41;;;19.11;57.85
37312;BME280;23197;53.912;9.138;2022-10-31T14:59:42;101860.50;;;19.03;58.01
37312;BME280;23197;53.912;9.138;2022-10-31T15:04:51;101856.22;;;18.90;58.01
37312;BME280;23197;53.912;9.138;2022-10-31T15:07:24;101854.19;;;18.83;58.07
37312;BME280;23197;53.912;9.138;2022-10-31T15:10:05;101850.50;;;18.74;58.17
37312;BME280;23197;53.912;9.138;2022-10-31T15:12:34;101843.78;;;18.70;58.21